METAR Data
IDs: Format: Raw Decoded Include TAF

Data at: 0726 UTC 01 Aug 2021

ESMK 010720Z 26011KT 210V280 9999 SCT027 18/11 Q1003